Time;durP1;ratioP1;P1;durP2;ratioP2;P2;SDS_P1;SDS_P2;PMS_P1;PMS_P2;Temp;Humidity;BMP_temperature;BMP_pressure;BME280_temperature;BME280_humidity;BME280_pressure;Samples;Min_cycle;Max_cycle;Signal;HPM_P1;HPM_P2
2022/02/05 00:01:36;;;;;;;1.70;1.07;;;5.10;99.90;;;;;;4955985;28;20663;-74
2022/02/05 00:04:03;;;;;;;1.67;0.73;;;5.10;99.90;;;;;;4955818;28;20503;-74
2022/02/05 00:06:34;;;;;;;1.20;0.83;;;5.00;99.90;;;;;;4956200;28;20474;-75
2022/02/05 00:09:30;;;;;;;1.37;0.70;;;5.00;99.90;;;;;;4955916;28;20400;-74
2022/02/05 00:12:20;;;;;;;0.87;0.87;;;4.90;99.90;;;;;;4955906;28;20445;-74
2022/02/05 00:15:00;;;;;;;1.60;0.70;;;4.80;99.90;;;;;;4955630;28;20422;-74
2022/02/05 00:42:06;;;;;;;1.37;0.90;;;4.00;99.90;;;;;;4955412;29;20407;-74
2022/02/05 00:44:31;;;;;;;2.27;1.00;;;3.90;99.90;;;;;;4955377;28;20407;-74
2022/02/05 00:46:57;;;;;;;3.43;0.67;;;3.80;99.90;;;;;;4955226;28;20413;-74
2022/02/05 00:49:22;;;;;;;0.60;0.60;;;3.80;99.90;;;;;;4955334;28;20185;-74
2022/02/05 00:51:54;;;;;;;0.77;0.70;;;3.80;99.90;;;;;;4955241;28;20198;-74
2022/02/05 00:54:23;;;;;;;0.93;0.93;;;3.70;99.90;;;;;;4954863;28;20208;-74
2022/02/05 00:57:06;;;;;;;0.70;0.70;;;3.70;99.90;;;;;;4955331;28;20784;-75
2022/02/05 00:59:31;;;;;;;1.10;0.90;;;3.60;99.90;;;;;;4953920;28;20846;-75
2022/02/05 05:31:13;;;;;;;1.37;1.27;;;2.40;99.90;;;;;;5844588;23;21039;-72
2022/02/05 05:33:39;;;;;;;2.50;1.63;;;2.50;99.90;;;;;;4990197;28;20423;-73
2022/02/05 05:36:04;;;;;;;3.57;1.20;;;2.50;99.90;;;;;;4992399;28;20214;-71
2022/02/05 05:38:31;;;;;;;7.10;1.33;;;2.60;99.90;;;;;;4993406;28;20216;-74
2022/02/05 05:40:56;;;;;;;2.20;1.40;;;2.60;99.90;;;;;;4991693;28;20201;-74
2022/02/05 05:43:39;;;;;;;1.70;1.20;;;2.60;99.90;;;;;;4984691;28;20398;-74
2022/02/05 05:48:55;;;;;;;2.43;1.10;;;2.70;99.90;;;;;;4993218;28;20509;-74
2022/02/05 05:51:21;;;;;;;4.83;1.33;;;2.80;99.90;;;;;;4993338;28;20518;-73
2022/02/05 05:53:46;;;;;;;2.43;0.90;;;2.70;99.90;;;;;;4992922;28;20482;-74
2022/02/05 05:56:12;;;;;;;1.60;1.50;;;2.80;99.90;;;;;;4992824;28;20579;-74
2022/02/05 05:58:38;;;;;;;2.40;1.33;;;2.80;99.90;;;;;;4993238;28;20218;-74
2022/02/05 06:01:04;;;;;;;2.00;1.43;;;2.80;99.90;;;;;;4992215;28;20200;-74
2022/02/05 06:03:30;;;;;;;3.47;1.60;;;2.80;99.90;;;;;;4992544;28;20423;-73
2022/02/05 06:05:55;;;;;;;4.10;1.33;;;2.80;99.90;;;;;;4992724;28;20181;-75
2022/02/05 06:08:21;;;;;;;5.73;1.37;;;2.90;99.90;;;;;;4992969;28;20423;-73
2022/02/05 06:10:46;;;;;;;4.77;1.50;;;2.90;99.90;;;;;;4992534;28;20203;-74
2022/02/05 06:13:13;;;;;;;4.23;1.60;;;2.90;99.90;;;;;;4992276;28;20648;-74
2022/02/05 06:15:40;;;;;;;2.10;1.30;;;2.90;99.90;;;;;;4992670;28;20168;-75
2022/02/05 06:18:07;;;;;;;5.40;1.37;;;2.90;99.90;;;;;;4992462;28;21222;-74
2022/02/05 06:20:33;;;;;;;3.00;1.50;;;3.00;99.90;;;;;;4992428;28;20797;-74
2022/02/05 06:22:58;;;;;;;2.90;2.10;;;3.00;99.90;;;;;;4992287;28;20404;-73
2022/02/05 06:25:24;;;;;;;2.27;1.30;;;3.00;99.90;;;;;;4992807;28;20176;-71
2022/02/05 06:27:50;;;;;;;3.57;1.57;;;3.00;99.90;;;;;;4992442;28;20212;-73
2022/02/05 06:30:15;;;;;;;3.27;1.63;;;3.10;99.90;;;;;;4992442;28;20185;-75
2022/02/05 06:32:44;;;;;;;1.80;1.10;;;3.10;99.90;;;;;;4991972;28;20219;-74
2022/02/05 06:35:11;;;;;;;3.17;1.60;;;3.10;99.90;;;;;;4992307;28;20714;-72
2022/02/05 06:37:37;;;;;;;1.90;1.67;;;3.10;99.90;;;;;;4992217;28;20427;-72
2022/02/05 06:40:05;;;;;;;4.33;1.57;;;3.10;99.90;;;;;;4990824;28;20431;-71
2022/02/05 06:42:30;;;;;;;2.93;1.57;;;3.10;99.90;;;;;;4991981;28;20442;-72
2022/02/05 06:44:56;;;;;;;5.60;1.57;;;3.20;99.90;;;;;;4991972;28;20446;-73
2022/02/05 06:47:21;;;;;;;4.23;1.70;;;3.30;99.90;;;;;;4992091;28;20180;-72
2022/02/05 06:49:47;;;;;;;3.03;1.10;;;3.30;99.90;;;;;;4992058;28;20180;-70
2022/02/05 06:52:12;;;;;;;2.73;1.43;;;3.30;99.90;;;;;;4991398;28;20262;-73
2022/02/05 06:54:38;;;;;;;1.50;1.40;;;3.30;99.90;;;;;;4991900;28;20654;-72
2022/02/05 06:57:04;;;;;;;7.10;1.30;;;3.40;99.90;;;;;;4992193;28;20597;-72
2022/02/05 06:59:30;;;;;;;4.20;1.20;;;3.40;99.90;;;;;;4991960;28;20203;-73
2022/02/05 07:01:55;;;;;;;2.10;1.20;;;3.40;99.90;;;;;;4991683;28;20443;-74
2022/02/05 07:04:26;;;;;;;7.17;1.80;;;3.40;99.90;;;;;;4991856;28;20642;-73
2022/02/05 07:06:54;;;;;;;6.17;2.00;;;3.40;99.90;;;;;;4991937;28;20802;-70
2022/02/05 07:09:22;;;;;;;3.00;1.30;;;3.40;99.90;;;;;;4991773;28;20381;-71
2022/02/05 07:11:48;;;;;;;3.53;1.60;;;3.40;99.90;;;;;;4990451;28;20426;-71
2022/02/05 07:14:17;;;;;;;7.73;1.33;;;3.40;99.90;;;;;;4991583;28;20415;-71
2022/02/05 07:16:51;;;;;;;8.40;1.57;;;3.50;99.90;;;;;;4991817;28;20507;-71
2022/02/05 07:21:48;;;;;;;4.17;1.60;;;3.50;99.90;;;;;;4991568;28;20434;-72
2022/02/05 07:24:24;;;;;;;2.77;0.97;;;3.50;99.90;;;;;;4991685;28;20260;-72
2022/02/05 07:29:34;;;;;;;2.20;1.40;;;3.50;99.90;;;;;;4992153;28;20955;-72
2022/02/05 07:32:00;;;;;;;6.60;1.40;;;3.60;99.90;;;;;;4991244;28;20534;-73
2022/02/05 07:34:28;;;;;;;6.50;1.63;;;3.60;99.90;;;;;;4991398;28;20552;-73
2022/02/05 07:37:02;;;;;;;1.47;1.20;;;3.60;99.90;;;;;;4979130;28;20664;-73
2022/02/05 07:39:29;;;;;;;3.17;2.33;;;3.70;99.90;;;;;;4974699;28;20459;-72
2022/02/05 07:41:55;;;;;;;3.27;1.80;;;3.70;99.90;;;;;;4971941;28;20921;-73
2022/02/05 07:44:21;;;;;;;7.97;1.97;;;3.70;99.90;;;;;;4971944;28;20522;-73
2022/02/05 07:46:49;;;;;;;6.17;1.50;;;3.70;99.90;;;;;;4974708;28;20509;-72
2022/02/05 07:49:23;;;;;;;5.07;1.27;;;3.70;99.90;;;;;;4980808;28;20416;-72
2022/02/05 07:51:49;;;;;;;3.27;2.00;;;3.80;99.90;;;;;;4991432;28;20439;-72
2022/02/05 07:54:15;;;;;;;1.63;1.03;;;3.90;99.90;;;;;;4991328;28;20399;-72
2022/02/05 07:56:45;;;;;;;1.50;1.40;;;4.30;99.90;;;;;;4991727;28;20759;-72
2022/02/05 07:59:12;;;;;;;8.37;1.87;;;5.00;99.90;;;;;;4991256;28;20214;-72
2022/02/05 08:01:38;;;;;;;4.30;1.87;;;6.30;99.90;;;;;;4991447;28;21188;-72
2022/02/05 08:04:05;;;;;;;2.20;1.27;;;7.90;99.90;;;;;;4992973;28;20431;-73
2022/02/05 08:06:31;;;;;;;4.90;2.17;;;9.30;99.90;;;;;;4995102;28;20418;-72
2022/02/05 08:09:01;;;;;;;5.87;2.63;;;10.30;99.90;;;;;;4994869;28;20439;-72
2022/02/05 08:11:37;;;;;;;2.90;1.70;;;11.40;99.90;;;;;;4994871;28;20466;-72
2022/02/05 08:14:07;;;;;;;6.20;1.43;;;11.80;99.90;;;;;;4994685;28;20912;-72
2022/02/05 08:19:07;;;;;;;2.37;0.90;;;12.60;99.90;;;;;;4994636;28;20465;-71
2022/02/05 08:21:33;;;;;;;1.27;1.07;;;11.80;99.90;;;;;;4994579;28;20979;-73
2022/02/05 08:23:59;;;;;;;5.73;2.00;;;10.70;99.90;;;;;;4994523;28;20186;-73
2022/02/05 08:26:28;;;;;;;3.80;1.27;;;9.80;99.90;;;;;;4994540;28;20250;-73
2022/02/05 08:28:59;;;;;;;1.60;1.10;;;8.90;99.90;;;;;;4994612;28;20189;-71
2022/02/05 08:31:26;;;;;;;3.37;1.00;;;8.40;99.90;;;;;;4994137;28;20563;-73
2022/02/05 08:33:52;;;;;;;2.30;2.00;;;8.10;99.90;;;;;;4994212;28;20426;-70
2022/02/05 08:36:21;;;;;;;6.30;1.17;;;7.90;99.90;;;;;;4994228;28;20933;-73
2022/02/05 08:38:48;;;;;;;4.20;1.10;;;7.80;99.90;;;;;;4994237;28;20463;-73
2022/02/05 08:41:13;;;;;;;2.40;1.27;;;7.60;99.90;;;;;;4993988;28;20472;-73
2022/02/05 08:43:39;;;;;;;6.70;1.30;;;7.30;99.90;;;;;;4994021;28;20875;-72
2022/02/05 08:46:04;;;;;;;4.53;1.33;;;7.20;99.90;;;;;;4993788;28;20172;-72
2022/02/05 08:48:30;;;;;;;3.77;1.00;;;7.10;99.90;;;;;;4994103;28;20258;-73
2022/02/05 08:50:55;;;;;;;2.00;1.37;;;7.10;99.90;;;;;;4993548;28;20328;-73
2022/02/05 08:53:22;;;;;;;2.17;0.90;;;7.20;99.90;;;;;;4993211;28;20185;-74
2022/02/05 08:55:49;;;;;;;7.03;1.50;;;7.20;99.90;;;;;;4993362;28;20171;-73
2022/02/05 08:58:15;;;;;;;2.20;1.40;;;7.00;99.90;;;;;;4992155;28;21043;-74
2022/02/05 09:00:51;;;;;;;4.00;1.10;;;7.20;99.90;;;;;;4992352;28;20503;-74
2022/02/05 09:05:51;;;;;;;4.60;1.53;;;7.00;99.90;;;;;;4993870;28;20419;-73
2022/02/05 09:08:28;;;;;;;9.27;1.40;;;7.20;99.90;;;;;;4993684;28;20943;-73
2022/02/05 09:11:08;;;;;;;2.03;1.10;;;7.10;99.90;;;;;;4992809;28;20789;-73
2022/02/05 09:16:02;;;;;;;5.53;2.10;;;7.40;99.90;;;;;;4993919;28;20415;-71
2022/02/05 09:18:28;;;;;;;3.17;1.43;;;7.50;99.90;;;;;;4993468;28;20458;-74
2022/02/05 09:20:54;;;;;;;15.13;1.90;;;7.80;99.90;;;;;;4993283;28;20431;-75
2022/02/05 09:23:20;;;;;;;6.37;1.10;;;8.00;99.90;;;;;;4993314;28;20231;-74
2022/02/05 09:25:46;;;;;;;7.30;2.07;;;7.90;99.90;;;;;;4993616;28;20416;-72
2022/02/05 09:28:11;;;;;;;5.70;1.57;;;8.20;99.90;;;;;;4993358;28;20177;-72
2022/02/05 09:33:29;;;;;;;3.10;1.20;;;8.80;99.90;;;;;;4976009;28;20204;-72
2022/02/05 09:35:55;;;;;;;2.03;1.37;;;8.70;99.90;;;;;;4991722;28;20411;-72
2022/02/05 09:38:20;;;;;;;4.30;2.00;;;8.70;99.90;;;;;;4992532;28;20246;-72
2022/02/05 09:40:46;;;;;;;6.73;1.57;;;8.70;99.90;;;;;;4993111;28;20702;-72
2022/02/05 09:43:13;;;;;;;6.63;1.17;;;8.80;99.90;;;;;;4992764;28;20178;-73
2022/02/05 09:45:38;;;;;;;16.03;6.73;;;8.70;99.90;;;;;;4992993;28;20174;-73
2022/02/05 09:48:06;;;;;;;5.67;1.30;;;8.90;99.90;;;;;;4992864;28;20981;-74
2022/02/05 09:50:32;;;;;;;1.90;0.97;;;8.80;99.90;;;;;;4992741;28;20915;-71
2022/02/05 09:53:02;;;;;;;5.40;1.37;;;8.80;99.90;;;;;;4992790;28;20427;-72
2022/02/05 09:55:28;;;;;;;2.77;1.07;;;8.80;99.90;;;;;;4992867;28;20200;-73
2022/02/05 09:57:55;;;;;;;4.60;1.70;;;8.80;99.90;;;;;;4991319;28;20827;-73
2022/02/05 10:00:21;;;;;;;4.73;1.00;;;8.80;99.90;;;;;;4992511;28;20921;-72
2022/02/05 10:02:55;;;;;;;2.60;1.47;;;9.20;99.90;;;;;;4992410;28;20470;-70
2022/02/05 10:05:22;;;;;;;2.37;1.37;;;9.10;99.90;;;;;;4992700;28;20414;-73
2022/02/05 10:08:07;;;;;;;3.73;1.80;;;9.40;99.90;;;;;;4992655;28;20422;-72
2022/02/05 10:10:42;;;;;;;3.73;1.20;;;9.70;99.90;;;;;;4992449;28;20830;-73
2022/02/05 10:13:11;;;;;;;1.13;0.97;;;9.80;99.90;;;;;;4992076;28;20428;-72
2022/02/05 10:15:39;;;;;;;3.07;1.20;;;10.20;99.90;;;;;;4992759;28;20434;-73
2022/02/05 10:18:05;;;;;;;6.00;1.90;;;10.70;99.90;;;;;;4992294;28;20625;-72
2022/02/05 10:20:31;;;;;;;2.87;1.73;;;10.60;99.90;;;;;;4992370;28;20392;-72
2022/02/05 10:23:10;;;;;;;5.90;1.33;;;10.50;99.90;;;;;;4992051;28;20422;-72
2022/02/05 10:25:36;;;;;;;2.70;1.70;;;10.60;99.90;;;;;;4992567;28;20833;-73
2022/02/05 10:28:08;;;;;;;2.70;1.30;;;10.70;99.90;;;;;;4991544;28;20425;-72
2022/02/05 10:30:34;;;;;;;2.33;1.40;;;10.80;99.90;;;;;;4992273;28;20443;-74
2022/02/05 10:33:11;;;;;;;3.07;1.00;;;11.00;99.90;;;;;;4991755;28;20460;-73
2022/02/05 10:35:48;;;;;;;3.23;1.10;;;11.10;99.90;;;;;;4992404;28;20260;-73
2022/02/05 10:38:32;;;;;;;4.30;1.10;;;10.90;99.90;;;;;;4992101;28;20576;-72
2022/02/05 10:43:53;;;;;;;3.63;1.63;;;10.50;99.90;;;;;;4992007;28;20428;-73
2022/02/05 10:46:18;;;;;;;5.03;1.00;;;10.90;99.90;;;;;;4992364;28;20416;-72
2022/02/05 10:48:44;;;;;;;5.80;1.20;;;10.80;99.90;;;;;;4991958;28;20429;-73
2022/02/05 10:51:10;;;;;;;3.97;0.93;;;10.80;99.90;;;;;;4991751;28;20202;-72
2022/02/05 10:53:44;;;;;;;5.73;1.00;;;11.00;99.90;;;;;;4991847;28;20182;-73
2022/02/05 10:56:17;;;;;;;3.50;1.40;;;11.20;99.90;;;;;;4992031;28;20669;-72
2022/02/05 11:07:16;;;;;;;12.73;1.00;;;10.30;99.90;;;;;;4991972;28;21000;-73
2022/02/05 11:09:58;;;;;;;2.50;0.70;;;9.70;99.90;;;;;;4991908;28;20423;-72
2022/02/05 11:18:00;;;;;;;0.80;0.60;;;9.50;99.90;;;;;;4991941;28;21009;-72
2022/02/05 11:20:17;;;;;;;2.80;0.70;;;9.80;99.90;;;;;;4991478;28;20435;-72
2022/02/05 11:22:49;;;;;;;4.30;0.90;;;10.20;99.90;;;;;;4991655;28;20518;-73
2022/02/05 11:25:15;;;;;;;2.03;0.80;;;10.60;99.90;;;;;;4992084;28;20924;-73
2022/02/05 11:27:46;;;;;;;1.60;0.93;;;10.70;99.90;;;;;;4992151;28;20928;-72
2022/02/05 11:30:27;;;;;;;1.90;0.80;;;10.70;99.90;;;;;;4991547;28;20432;-72
2022/02/05 11:32:54;;;;;;;3.83;1.00;;;10.70;99.90;;;;;;4991160;28;20430;-72
2022/02/05 11:35:41;;;;;;;1.77;1.00;;;10.80;99.90;;;;;;4991836;28;20931;-73
2022/02/05 11:38:06;;;;;;;1.60;0.50;;;11.00;99.90;;;;;;4992838;28;20568;-73
2022/02/05 11:40:41;;;;;;;1.40;0.90;;;11.00;99.90;;;;;;4995209;28;20851;-72
2022/02/05 11:43:16;;;;;;;2.97;1.17;;;10.80;99.90;;;;;;4994993;28;20180;-72
2022/02/05 11:45:41;;;;;;;3.00;0.70;;;11.10;99.90;;;;;;4995375;28;20783;-73
2022/02/05 11:48:39;;;;;;;5.33;1.17;;;10.80;99.90;;;;;;4995057;28;20417;-72
2022/02/05 11:51:14;;;;;;;1.50;0.60;;;10.90;99.90;;;;;;4994893;28;20205;-72
2022/02/05 11:53:55;;;;;;;1.87;0.70;;;10.80;99.90;;;;;;4994868;28;20423;-73
2022/02/05 11:56:22;;;;;;;3.70;0.97;;;10.60;99.90;;;;;;4995133;28;20512;-73
2022/02/05 11:58:58;;;;;;;2.17;0.80;;;10.70;99.90;;;;;;4994880;28;20826;-73
2022/02/05 12:01:38;;;;;;;4.27;0.60;;;10.80;99.90;;;;;;4995046;28;20442;-73
2022/02/05 12:04:22;;;;;;;6.90;2.77;;;10.60;99.90;;;;;;4994676;28;20419;-73
2022/02/05 12:06:58;;;;;;;1.53;0.70;;;10.50;99.90;;;;;;4995026;28;20510;-73
2022/02/05 12:09:44;;;;;;;2.10;0.70;;;10.50;99.90;;;;;;4994737;28;20434;-72
2022/02/05 12:12:22;;;;;;;2.70;1.17;;;10.50;99.90;;;;;;4994601;28;20446;-72
2022/02/05 12:15:07;;;;;;;2.00;1.00;;;10.50;99.90;;;;;;4994577;28;20458;-73
2022/02/05 12:20:30;;;;;;;2.50;0.60;;;10.60;99.90;;;;;;4994667;28;20924;-72
2022/02/05 12:23:07;;;;;;;1.80;0.63;;;10.30;99.90;;;;;;4994510;28;20436;-72
2022/02/05 12:25:53;;;;;;;8.53;0.60;;;10.20;99.90;;;;;;4994632;28;20423;-73
2022/02/05 12:28:39;;;;;;;1.17;0.97;;;10.20;99.90;;;;;;4994595;28;20917;-73
2022/02/05 12:31:26;;;;;;;1.43;0.60;;;10.40;99.90;;;;;;4994173;28;20459;-73
2022/02/05 12:33:59;;;;;;;1.00;0.80;;;10.40;99.90;;;;;;4994172;28;20432;-73
2022/02/05 12:36:30;;;;;;;1.23;0.60;;;10.50;99.90;;;;;;4994800;28;20840;-72
2022/02/05 12:38:57;;;;;;;1.13;0.70;;;10.40;99.90;;;;;;4994061;28;20455;-72
2022/02/05 12:41:25;;;;;;;0.50;0.50;;;10.50;99.90;;;;;;4993934;28;20445;-72
2022/02/05 12:43:57;;;;;;;3.10;1.17;;;10.40;99.90;;;;;;4993987;28;20817;-73
2022/02/05 12:46:50;;;;;;;4.57;0.60;;;10.20;99.90;;;;;;4994364;28;20458;-73
2022/02/05 12:49:38;;;;;;;3.90;0.80;;;10.00;99.90;;;;;;4993494;28;20438;-73
2022/02/05 12:52:04;;;;;;;2.77;0.90;;;9.90;99.90;;;;;;4993918;28;20431;-72
2022/02/05 12:54:30;;;;;;;1.57;1.00;;;9.80;99.90;;;;;;4993912;28;20480;-72
2022/02/05 12:56:58;;;;;;;3.13;0.70;;;9.80;99.90;;;;;;4993849;28;21017;-72
2022/02/05 12:59:35;;;;;;;1.63;0.70;;;9.80;99.90;;;;;;4993952;28;20518;-72
2022/02/05 13:02:06;;;;;;;1.10;0.67;;;9.70;99.90;;;;;;4993739;28;20444;-72
2022/02/05 13:04:42;;;;;;;2.53;0.50;;;9.70;99.90;;;;;;4993777;28;20421;-72
2022/02/05 13:07:09;;;;;;;2.83;0.80;;;9.70;99.90;;;;;;4993800;28;20388;-72
2022/02/05 13:12:14;;;;;;;3.57;1.20;;;9.30;99.90;;;;;;4993522;28;20441;-72
2022/02/05 13:14:52;;;;;;;1.90;0.60;;;9.30;99.90;;;;;;4993661;28;20452;-73
2022/02/05 13:17:31;;;;;;;2.93;0.73;;;9.50;99.90;;;;;;4993540;28;20469;-72
2022/02/05 13:25:48;;;;;;;1.50;0.77;;;9.50;99.90;;;;;;4993597;28;20421;-73
2022/02/05 13:36:15;;;;;;;1.30;0.87;;;9.40;99.90;;;;;;4993515;28;20188;-73
2022/02/05 13:39:22;;;;;;;8.13;1.07;;;9.40;99.90;;;;;;4993048;28;21023;-73
2022/02/05 13:41:58;;;;;;;1.67;0.70;;;9.50;99.90;;;;;;4993059;28;20855;-73
2022/02/05 13:44:26;;;;;;;2.40;0.60;;;9.40;99.90;;;;;;4992983;28;20410;-72
2022/02/05 13:47:06;;;;;;;2.30;0.80;;;9.10;99.90;;;;;;4993007;28;20791;-73
2022/02/05 13:49:34;;;;;;;1.87;0.60;;;8.90;99.90;;;;;;4993015;28;20454;-73
2022/02/05 13:52:13;;;;;;;2.90;0.70;;;8.90;99.90;;;;;;4992970;28;20444;-72
2022/02/05 13:54:41;;;;;;;3.50;0.80;;;8.90;99.90;;;;;;4992681;28;20925;-73
2022/02/05 13:57:10;;;;;;;7.37;1.10;;;8.80;99.90;;;;;;4992842;28;20509;-73
2022/02/05 13:59:35;;;;;;;2.23;0.90;;;8.90;99.90;;;;;;4992744;28;20478;-73
2022/02/05 14:02:15;;;;;;;2.50;1.20;;;8.90;99.90;;;;;;4991727;28;20420;-73
2022/02/05 14:04:41;;;;;;;6.10;1.17;;;8.90;99.90;;;;;;4992611;28;20241;-72
2022/02/05 14:07:06;;;;;;;2.80;0.90;;;8.90;99.90;;;;;;4992689;28;20446;-73
2022/02/05 14:09:34;;;;;;;1.10;0.60;;;8.90;99.90;;;;;;4992725;28;20476;-74
2022/02/05 14:12:20;;;;;;;2.03;0.80;;;8.70;99.90;;;;;;4991070;28;20666;-73
2022/02/05 14:15:01;;;;;;;1.80;1.07;;;8.70;99.90;;;;;;4992499;28;20422;-73
2022/02/05 14:17:27;;;;;;;1.77;0.60;;;8.70;99.90;;;;;;4992642;28;20454;-73
2022/02/05 14:20:08;;;;;;;0.90;0.90;;;8.60;99.90;;;;;;4992522;28;20492;-72
2022/02/05 14:22:37;;;;;;;1.30;0.63;;;8.50;99.90;;;;;;4992391;28;20185;-73
2022/02/05 14:25:17;;;;;;;1.30;0.80;;;8.40;99.90;;;;;;4992263;28;20462;-73
2022/02/05 14:28:06;;;;;;;1.70;1.20;;;8.30;99.90;;;;;;4992404;28;20407;-72
2022/02/05 14:30:33;;;;;;;3.40;0.90;;;8.30;99.90;;;;;;4992383;28;20498;-72
2022/02/05 14:33:03;;;;;;;1.77;0.90;;;8.30;99.90;;;;;;4991908;28;20427;-73
2022/02/05 14:40:48;;;;;;;5.97;1.17;;;8.10;99.90;;;;;;4992404;28;20873;-72
2022/02/05 14:43:16;;;;;;;3.23;0.90;;;8.10;99.90;;;;;;4992001;28;20444;-73
2022/02/05 14:45:43;;;;;;;2.63;0.73;;;8.00;99.90;;;;;;4992273;28;20171;-73
2022/02/05 14:48:08;;;;;;;1.03;0.70;;;8.00;99.90;;;;;;4992116;28;20459;-73
2022/02/05 14:50:35;;;;;;;2.20;0.93;;;7.90;99.90;;;;;;4992052;28;20419;-73
2022/02/05 14:53:00;;;;;;;3.63;0.70;;;7.80;99.90;;;;;;4991728;28;20180;-73
2022/02/05 14:55:27;;;;;;;4.70;0.60;;;7.80;99.90;;;;;;4992235;28;20486;-72
2022/02/05 14:57:52;;;;;;;0.90;0.90;;;7.80;99.90;;;;;;4991864;28;20185;-73
2022/02/05 15:00:18;;;;;;;5.30;3.70;;;7.80;99.90;;;;;;4992142;28;20478;-73
2022/02/05 15:02:44;;;;;;;1.80;1.07;;;7.80;99.90;;;;;;4991796;28;20321;-71
2022/02/05 15:05:11;;;;;;;1.80;1.20;;;7.80;99.90;;;;;;4991946;28;20283;-73
2022/02/05 15:07:40;;;;;;;1.70;0.90;;;7.70;99.90;;;;;;4992045;28;20181;-72
2022/02/05 15:10:09;;;;;;;3.53;1.03;;;7.70;99.90;;;;;;4991732;28;20481;-72
2022/02/05 15:12:36;;;;;;;0.70;0.70;;;7.60;99.90;;;;;;4992419;28;20485;-72
2022/02/05 15:15:01;;;;;;;2.10;0.87;;;7.70;99.90;;;;;;4995740;28;20421;-73
2022/02/05 15:17:28;;;;;;;1.33;0.93;;;7.70;99.90;;;;;;4996097;28;20483;-73
2022/02/05 15:19:54;;;;;;;3.50;0.87;;;7.70;99.90;;;;;;4995599;28;20213;-72
2022/02/05 15:22:19;;;;;;;1.10;1.10;;;7.60;99.90;;;;;;4995573;28;20410;-72
2022/02/05 15:24:45;;;;;;;4.53;0.70;;;7.50;99.90;;;;;;4995599;28;20176;-72
2022/02/05 15:27:11;;;;;;;4.97;1.00;;;7.40;99.90;;;;;;4995497;28;20210;-72
2022/02/05 15:29:36;;;;;;;3.37;1.60;;;7.40;99.90;;;;;;4995574;28;20188;-72
2022/02/05 15:32:02;;;;;;;2.43;1.20;;;7.30;99.90;;;;;;4995270;28;20220;-72
2022/02/05 15:34:28;;;;;;;3.53;1.13;;;7.30;99.90;;;;;;4995356;28;20180;-72
2022/02/05 15:36:58;;;;;;;2.30;2.10;;;7.20;99.90;;;;;;4995435;28;20178;-72
2022/02/05 15:39:43;;;;;;;2.50;2.10;;;7.10;99.90;;;;;;4995313;28;20208;-72
2022/02/05 15:44:53;;;;;;;2.73;1.33;;;7.10;99.90;;;;;;4995283;28;20417;-72
2022/02/05 15:47:19;;;;;;;1.73;1.40;;;7.00;99.90;;;;;;4995888;28;20423;-73
2022/02/05 15:49:44;;;;;;;4.53;1.83;;;7.00;99.90;;;;;;4995534;28;20179;-73
2022/02/05 15:52:12;;;;;;;6.23;2.37;;;6.90;99.90;;;;;;4995079;28;20194;-72
2022/02/05 15:54:38;;;;;;;7.10;2.83;;;6.90;99.90;;;;;;4995493;28;20262;-73
2022/02/05 15:57:17;;;;;;;3.90;1.37;;;6.90;99.90;;;;;;4995180;28;20837;-72
2022/02/05 15:59:56;;;;;;;6.60;2.60;;;6.80;99.90;;;;;;4995305;28;20203;-71
2022/02/05 16:02:21;;;;;;;2.37;2.17;;;6.70;99.90;;;;;;4995071;28;20443;-73
2022/02/05 16:04:47;;;;;;;1.80;0.90;;;6.70;99.90;;;;;;4994947;28;20417;-73
2022/02/05 16:07:13;;;;;;;6.10;3.80;;;6.60;99.90;;;;;;4994870;28;20249;-73
2022/02/05 16:09:40;;;;;;;3.70;1.60;;;6.60;99.90;;;;;;4994991;28;20657;-73
2022/02/05 16:12:06;;;;;;;1.33;0.90;;;6.50;99.90;;;;;;4995344;28;20684;-73
2022/02/05 16:14:31;;;;;;;7.50;3.50;;;6.50;99.90;;;;;;4994804;28;20457;-72
2022/02/05 16:16:57;;;;;;;6.70;5.10;;;6.50;99.90;;;;;;4994976;28;20424;-72
2022/02/05 16:19:22;;;;;;;12.43;6.40;;;6.40;99.90;;;;;;4994777;28;20710;-73
2022/02/05 16:21:48;;;;;;;20.67;8.50;;;6.40;99.90;;;;;;4994695;28;20723;-72
2022/02/05 16:24:14;;;;;;;5.63;4.00;;;6.30;99.90;;;;;;4993295;28;20176;-73
2022/02/05 16:26:40;;;;;;;2.73;1.60;;;6.30;99.90;;;;;;4994683;28;20410;-72
2022/02/05 16:29:06;;;;;;;1.63;1.00;;;6.30;99.90;;;;;;4994320;28;20174;-72
2022/02/05 16:31:31;;;;;;;1.33;0.90;;;6.20;99.90;;;;;;4994799;28;20447;-72
2022/02/05 16:34:09;;;;;;;3.20;1.00;;;6.10;99.90;;;;;;4994125;28;20182;-73
2022/02/05 16:36:37;;;;;;;2.60;0.70;;;6.00;99.90;;;;;;4994727;28;20187;-73
2022/02/05 16:39:03;;;;;;;4.73;0.90;;;5.80;99.90;;;;;;4994055;28;20865;-72
2022/02/05 16:41:29;;;;;;;1.70;1.00;;;5.80;99.90;;;;;;4994409;28;20522;-73
2022/02/05 16:43:54;;;;;;;3.67;0.93;;;5.70;99.90;;;;;;4994043;28;20958;-73
2022/02/05 16:46:22;;;;;;;1.30;0.90;;;5.60;99.90;;;;;;4994431;28;20669;-73
2022/02/05 16:48:49;;;;;;;2.13;1.10;;;5.50;99.90;;;;;;4994182;28;20174;-72
2022/02/05 16:51:16;;;;;;;1.10;1.00;;;5.50;99.90;;;;;;4993989;28;20471;-72
2022/02/05 16:53:43;;;;;;;1.87;1.13;;;5.50;99.90;;;;;;4993932;28;20403;-74
2022/02/05 16:56:10;;;;;;;5.70;1.20;;;5.50;99.90;;;;;;4994023;28;21196;-73
2022/02/05 16:58:38;;;;;;;3.83;1.00;;;5.50;99.90;;;;;;4994137;28;21024;-73
2022/02/05 17:01:06;;;;;;;2.93;0.80;;;5.40;99.90;;;;;;4993726;28;20442;-74
2022/02/05 17:03:32;;;;;;;4.37;1.20;;;5.50;99.90;;;;;;4993922;28;20417;-73
2022/02/05 17:05:58;;;;;;;3.30;1.07;;;5.50;99.90;;;;;;4993924;28;20478;-74
2022/02/05 17:08:30;;;;;;;4.43;1.00;;;5.50;99.90;;;;;;4993957;28;20786;-73
2022/02/05 17:10:55;;;;;;;0.87;0.70;;;5.40;99.90;;;;;;4993804;28;20198;-74
2022/02/05 17:13:21;;;;;;;2.20;1.10;;;5.50;99.90;;;;;;4993735;28;20427;-74
2022/02/05 17:15:46;;;;;;;2.70;1.17;;;5.50;99.90;;;;;;4993867;28;20256;-73
2022/02/05 17:18:21;;;;;;;3.90;1.03;;;5.50;99.90;;;;;;4993585;28;20348;-74
2022/02/05 17:20:53;;;;;;;3.97;1.47;;;5.60;99.90;;;;;;4993673;28;20172;-74
2022/02/05 17:23:23;;;;;;;11.70;1.10;;;5.60;99.90;;;;;;4993681;28;20390;-74
2022/02/05 17:25:48;;;;;;;5.53;1.10;;;5.60;99.90;;;;;;4993868;28;20416;-73
2022/02/05 17:28:14;;;;;;;4.90;1.27;;;5.60;99.90;;;;;;4993382;28;20426;-74
2022/02/05 17:30:39;;;;;;;2.73;1.53;;;5.50;99.90;;;;;;4993480;28;20183;-74
2022/02/05 17:33:08;;;;;;;3.40;1.23;;;5.50;99.90;;;;;;4992931;28;20240;-74
2022/02/05 17:35:38;;;;;;;2.83;1.03;;;5.40;99.90;;;;;;4993368;28;20177;-73
2022/02/05 17:38:04;;;;;;;2.23;1.40;;;5.40;99.90;;;;;;4993145;28;20420;-74
2022/02/05 17:40:31;;;;;;;2.30;1.20;;;5.30;99.90;;;;;;4993224;28;20421;-72
2022/02/05 17:42:58;;;;;;;3.80;0.80;;;5.20;99.90;;;;;;4992740;28;20935;-74
2022/02/05 17:45:24;;;;;;;1.43;1.00;;;5.10;99.90;;;;;;4993382;28;20419;-73
2022/02/05 17:47:49;;;;;;;2.10;0.87;;;5.10;99.90;;;;;;4993092;28;20787;-73
2022/02/05 17:50:15;;;;;;;4.90;1.20;;;5.00;99.90;;;;;;4992985;28;20189;-73
2022/02/05 17:52:41;;;;;;;1.93;1.37;;;5.00;99.90;;;;;;4993000;28;20210;-73
2022/02/05 17:55:07;;;;;;;3.40;1.00;;;5.00;99.90;;;;;;4992787;28;20186;-73
2022/02/05 17:57:34;;;;;;;6.20;1.43;;;5.00;99.90;;;;;;4992997;28;20186;-73
2022/02/05 18:00:00;;;;;;;6.57;1.47;;;5.00;99.90;;;;;;4992694;28;20468;-74
2022/02/05 18:02:27;;;;;;;2.37;1.30;;;5.00;99.90;;;;;;4992901;28;20441;-73
2022/02/05 18:04:54;;;;;;;3.60;1.60;;;5.10;99.90;;;;;;4992690;28;20472;-73
2022/02/05 18:07:29;;;;;;;3.70;1.40;;;5.10;99.90;;;;;;4992937;28;20423;-73
2022/02/05 18:12:34;;;;;;;5.33;1.70;;;5.20;99.90;;;;;;4992584;28;20989;-73
2022/02/05 18:15:04;;;;;;;4.50;1.33;;;5.20;99.90;;;;;;4992485;28;20396;-74
2022/02/05 18:17:31;;;;;;;1.57;1.40;;;5.30;99.90;;;;;;4992728;28;20423;-73
2022/02/05 18:19:58;;;;;;;2.63;1.37;;;5.30;99.90;;;;;;4992455;28;20460;-73
2022/02/05 18:22:24;;;;;;;3.07;1.73;;;5.30;99.90;;;;;;4992629;28;20434;-74
2022/02/05 18:24:50;;;;;;;1.83;1.30;;;5.40;99.90;;;;;;4992466;28;20770;-73
2022/02/05 18:27:16;;;;;;;3.03;1.47;;;5.40;99.90;;;;;;4992390;28;20168;-74
2022/02/05 18:29:41;;;;;;;7.43;2.20;;;5.40;99.90;;;;;;4992451;28;20663;-73
2022/02/05 18:32:09;;;;;;;3.20;1.40;;;5.40;99.90;;;;;;4992084;28;20263;-74
2022/02/05 18:34:36;;;;;;;2.37;1.97;;;5.40;99.90;;;;;;4992391;28;20272;-74
2022/02/05 18:37:02;;;;;;;5.10;2.00;;;5.40;99.90;;;;;;4992372;28;20429;-73
2022/02/05 18:39:33;;;;;;;3.80;2.30;;;5.40;99.90;;;;;;4991090;28;20883;-73
2022/02/05 18:42:00;;;;;;;4.20;1.67;;;5.40;99.90;;;;;;4992324;28;20445;-73
2022/02/05 18:44:25;;;;;;;4.20;1.90;;;5.30;99.90;;;;;;4992175;28;20939;-73
2022/02/05 18:46:51;;;;;;;9.10;1.63;;;5.30;99.90;;;;;;4992101;28;20399;-73
2022/02/05 18:49:16;;;;;;;3.93;1.53;;;5.30;99.90;;;;;;4991900;28;20178;-73
2022/02/05 18:51:44;;;;;;;14.60;5.80;;;5.20;99.90;;;;;;4992474;28;20197;-74
2022/02/05 18:54:10;;;;;;;7.67;3.80;;;5.10;99.90;;;;;;4992050;28;20176;-73
2022/02/05 18:56:37;;;;;;;8.17;2.83;;;5.00;99.90;;;;;;4992430;28;20423;-73
2022/02/05 18:59:05;;;;;;;12.00;2.47;;;5.00;99.90;;;;;;4988631;28;20206;-73
2022/02/05 19:01:38;;;;;;;4.00;2.60;;;4.90;99.90;;;;;;4991994;28;20816;-73
2022/02/05 19:04:31;;;;;;;6.23;2.67;;;4.80;99.90;;;;;;4991757;28;20424;-74
2022/02/05 19:12:51;;;;;;;3.63;2.00;;;4.70;99.90;;;;;;4992218;28;20460;-74